sensor_id;sensor_type;location;lat;lon;timestamp;P1;durP1;ratioP1;P2;durP2;ratioP2
21215;SDS011;10765;50.954;5.322;2022-11-20T00:01:06;22.00;;;17.30;;
21215;SDS011;10765;50.954;5.322;2022-11-20T00:03:34;21.07;;;16.87;;
21215;SDS011;10765;50.954;5.322;2022-11-20T00:06:01;20.77;;;18.37;;
21215;SDS011;10765;50.954;5.322;2022-11-20T00:08:29;23.50;;;20.07;;
21215;SDS011;10765;50.954;5.322;2022-11-20T00:10:56;23.03;;;18.87;;
21215;SDS011;10765;50.954;5.322;2022-11-20T00:13:23;22.30;;;18.03;;
21215;SDS011;10765;50.954;5.322;2022-11-20T00:15:57;31.67;;;26.77;;
21215;SDS011;10765;50.954;5.322;2022-11-20T00:18:24;21.20;;;18.80;;
21215;SDS011;10765;50.954;5.322;2022-11-20T00:20:51;22.83;;;18.47;;
21215;SDS011;10765;50.954;5.322;2022-11-20T00:23:18;31.23;;;23.50;;
21215;SDS011;10765;50.954;5.322;2022-11-20T00:25:45;22.43;;;18.00;;
21215;SDS011;10765;50.954;5.322;2022-11-20T00:28:12;21.87;;;18.43;;
21215;SDS011;10765;50.954;5.322;2022-11-20T00:30:39;23.37;;;17.83;;
21215;SDS011;10765;50.954;5.322;2022-11-20T00:33:07;23.27;;;18.33;;
21215;SDS011;10765;50.954;5.322;2022-11-20T00:35:34;21.47;;;17.97;;
21215;SDS011;10765;50.954;5.322;2022-11-20T00:38:01;20.23;;;17.60;;
21215;SDS011;10765;50.954;5.322;2022-11-20T00:40:28;20.57;;;18.10;;
21215;SDS011;10765;50.954;5.322;2022-11-20T00:42:55;22.37;;;18.40;;
21215;SDS011;10765;50.954;5.322;2022-11-20T00:45:22;20.77;;;17.90;;
21215;SDS011;10765;50.954;5.322;2022-11-20T00:47:49;21.03;;;18.00;;
21215;SDS011;10765;50.954;5.322;2022-11-20T00:50:17;22.70;;;17.53;;
21215;SDS011;10765;50.954;5.322;2022-11-20T00:52:44;21.63;;;18.30;;
21215;SDS011;10765;50.954;5.322;2022-11-20T00:55:11;22.53;;;18.43;;
21215;SDS011;10765;50.954;5.322;2022-11-20T00:57:38;24.30;;;19.70;;
21215;SDS011;10765;50.954;5.322;2022-11-20T01:00:05;24.70;;;20.17;;
21215;SDS011;10765;50.954;5.322;2022-11-20T01:02:32;23.20;;;19.83;;
21215;SDS011;10765;50.954;5.322;2022-11-20T01:04:59;24.53;;;19.77;;
21215;SDS011;10765;50.954;5.322;2022-11-20T01:07:27;24.20;;;20.17;;
21215;SDS011;10765;50.954;5.322;2022-11-20T01:09:54;24.53;;;20.27;;
21215;SDS011;10765;50.954;5.322;2022-11-20T01:12:21;24.27;;;20.40;;
21215;SDS011;10765;50.954;5.322;2022-11-20T01:14:48;27.10;;;19.97;;
21215;SDS011;10765;50.954;5.322;2022-11-20T01:17:15;22.60;;;19.67;;
21215;SDS011;10765;50.954;5.322;2022-11-20T01:19:42;23.90;;;19.83;;
21215;SDS011;10765;50.954;5.322;2022-11-20T01:22:09;22.53;;;19.23;;
21215;SDS011;10765;50.954;5.322;2022-11-20T01:24:37;24.33;;;19.20;;
21215;SDS011;10765;50.954;5.322;2022-11-20T01:27:04;21.90;;;18.50;;
21215;SDS011;10765;50.954;5.322;2022-11-20T01:29:31;24.67;;;19.70;;
21215;SDS011;10765;50.954;5.322;2022-11-20T01:31:59;21.37;;;18.97;;
21215;SDS011;10765;50.954;5.322;2022-11-20T01:34:25;23.40;;;18.60;;
21215;SDS011;10765;50.954;5.322;2022-11-20T01:36:52;22.97;;;19.60;;
21215;SDS011;10765;50.954;5.322;2022-11-20T01:39:20;24.40;;;19.63;;
21215;SDS011;10765;50.954;5.322;2022-11-20T01:41:51;23.47;;;19.80;;
21215;SDS011;10765;50.954;5.322;2022-11-20T01:44:45;24.80;;;19.73;;
21215;SDS011;10765;50.954;5.322;2022-11-20T01:47:16;21.77;;;18.63;;
21215;SDS011;10765;50.954;5.322;2022-11-20T01:49:46;24.27;;;20.00;;
21215;SDS011;10765;50.954;5.322;2022-11-20T01:52:17;23.43;;;19.53;;
21215;SDS011;10765;50.954;5.322;2022-11-20T01:54:49;23.47;;;19.87;;
21215;SDS011;10765;50.954;5.322;2022-11-20T01:57:22;23.63;;;19.60;;
21215;SDS011;10765;50.954;5.322;2022-11-20T01:59:53;24.03;;;19.40;;
21215;SDS011;10765;50.954;5.322;2022-11-20T02:02:25;26.43;;;19.53;;
21215;SDS011;10765;50.954;5.322;2022-11-20T02:04:54;23.60;;;18.73;;
21215;SDS011;10765;50.954;5.322;2022-11-20T02:07:26;22.60;;;18.30;;
21215;SDS011;10765;50.954;5.322;2022-11-20T02:09:54;22.70;;;19.37;;
21215;SDS011;10765;50.954;5.322;2022-11-20T02:12:22;22.07;;;18.13;;
21215;SDS011;10765;50.954;5.322;2022-11-20T02:15:09;21.43;;;18.53;;
21215;SDS011;10765;50.954;5.322;2022-11-20T02:17:36;22.43;;;19.43;;
21215;SDS011;10765;50.954;5.322;2022-11-20T02:20:04;21.80;;;18.47;;
21215;SDS011;10765;50.954;5.322;2022-11-20T02:22:34;25.80;;;19.83;;
21215;SDS011;10765;50.954;5.322;2022-11-20T02:25:06;23.13;;;19.90;;
21215;SDS011;10765;50.954;5.322;2022-11-20T02:27:33;24.37;;;19.13;;
21215;SDS011;10765;50.954;5.322;2022-11-20T02:30:01;21.73;;;18.80;;
21215;SDS011;10765;50.954;5.322;2022-11-20T02:32:31;22.57;;;19.33;;
21215;SDS011;10765;50.954;5.322;2022-11-20T02:35:05;23.83;;;20.17;;
21215;SDS011;10765;50.954;5.322;2022-11-20T02:37:33;22.37;;;20.00;;
21215;SDS011;10765;50.954;5.322;2022-11-20T02:40:03;24.00;;;19.77;;
21215;SDS011;10765;50.954;5.322;2022-11-20T02:42:32;24.20;;;19.30;;
21215;SDS011;10765;50.954;5.322;2022-11-20T02:44:59;24.57;;;20.13;;
21215;SDS011;10765;50.954;5.322;2022-11-20T02:47:26;24.47;;;19.70;;
21215;SDS011;10765;50.954;5.322;2022-11-20T02:49:53;23.07;;;19.97;;
21215;SDS011;10765;50.954;5.322;2022-11-20T02:52:20;22.90;;;19.03;;
21215;SDS011;10765;50.954;5.322;2022-11-20T02:54:47;21.77;;;18.67;;
21215;SDS011;10765;50.954;5.322;2022-11-20T02:57:15;24.17;;;20.10;;
21215;SDS011;10765;50.954;5.322;2022-11-20T02:59:42;23.60;;;20.07;;
21215;SDS011;10765;50.954;5.322;2022-11-20T03:02:09;22.50;;;18.90;;
21215;SDS011;10765;50.954;5.322;2022-11-20T03:04:36;21.57;;;18.37;;
21215;SDS011;10765;50.954;5.322;2022-11-20T03:07:03;22.07;;;18.60;;
21215;SDS011;10765;50.954;5.322;2022-11-20T03:09:30;24.50;;;20.60;;
21215;SDS011;10765;50.954;5.322;2022-11-20T03:11:57;22.27;;;17.73;;
21215;SDS011;10765;50.954;5.322;2022-11-20T03:14:25;20.67;;;18.47;;
21215;SDS011;10765;50.954;5.322;2022-11-20T03:16:52;20.93;;;18.07;;
21215;SDS011;10765;50.954;5.322;2022-11-20T03:19:19;21.97;;;18.90;;
21215;SDS011;10765;50.954;5.322;2022-11-20T03:21:46;21.73;;;18.47;;
21215;SDS011;10765;50.954;5.322;2022-11-20T03:24:13;20.20;;;17.60;;
21215;SDS011;10765;50.954;5.322;2022-11-20T03:26:40;22.63;;;19.20;;
21215;SDS011;10765;50.954;5.322;2022-11-20T03:29:07;23.90;;;19.87;;
21215;SDS011;10765;50.954;5.322;2022-11-20T03:31:37;23.60;;;18.77;;
21215;SDS011;10765;50.954;5.322;2022-11-20T03:34:06;24.10;;;19.17;;
21215;SDS011;10765;50.954;5.322;2022-11-20T03:36:33;23.07;;;18.80;;
21215;SDS011;10765;50.954;5.322;2022-11-20T03:39:01;21.20;;;17.50;;
21215;SDS011;10765;50.954;5.322;2022-11-20T03:41:28;20.60;;;17.53;;
21215;SDS011;10765;50.954;5.322;2022-11-20T03:43:57;22.30;;;18.90;;
21215;SDS011;10765;50.954;5.322;2022-11-20T03:46:25;23.30;;;19.10;;
21215;SDS011;10765;50.954;5.322;2022-11-20T03:48:55;23.53;;;19.07;;
21215;SDS011;10765;50.954;5.322;2022-11-20T03:51:23;21.37;;;19.10;;
21215;SDS011;10765;50.954;5.322;2022-11-20T03:53:52;22.67;;;19.00;;
21215;SDS011;10765;50.954;5.322;2022-11-20T03:56:19;24.67;;;18.70;;
21215;SDS011;10765;50.954;5.322;2022-11-20T03:58:49;23.20;;;19.83;;
21215;SDS011;10765;50.954;5.322;2022-11-20T04:01:16;23.37;;;19.37;;
21215;SDS011;10765;50.954;5.322;2022-11-20T04:03:44;21.77;;;18.70;;
21215;SDS011;10765;50.954;5.322;2022-11-20T04:06:13;22.47;;;19.77;;
21215;SDS011;10765;50.954;5.322;2022-11-20T04:08:42;21.80;;;19.27;;
21215;SDS011;10765;50.954;5.322;2022-11-20T04:11:09;21.50;;;18.70;;
21215;SDS011;10765;50.954;5.322;2022-11-20T04:13:37;24.17;;;19.17;;
21215;SDS011;10765;50.954;5.322;2022-11-20T04:16:04;21.23;;;18.33;;
21215;SDS011;10765;50.954;5.322;2022-11-20T04:18:32;21.83;;;18.93;;
21215;SDS011;10765;50.954;5.322;2022-11-20T04:21:00;21.80;;;18.67;;
21215;SDS011;10765;50.954;5.322;2022-11-20T04:23:28;21.13;;;18.37;;
21215;SDS011;10765;50.954;5.322;2022-11-20T04:26:00;22.93;;;20.43;;
21215;SDS011;10765;50.954;5.322;2022-11-20T04:28:27;25.40;;;20.53;;
21215;SDS011;10765;50.954;5.322;2022-11-20T04:30:54;27.13;;;21.13;;
21215;SDS011;10765;50.954;5.322;2022-11-20T04:33:28;27.60;;;21.37;;
21215;SDS011;10765;50.954;5.322;2022-11-20T04:35:55;28.77;;;22.07;;
21215;SDS011;10765;50.954;5.322;2022-11-20T04:38:25;26.97;;;22.03;;
21215;SDS011;10765;50.954;5.322;2022-11-20T04:40:56;33.93;;;24.20;;
21215;SDS011;10765;50.954;5.322;2022-11-20T04:43:24;33.63;;;23.83;;
21215;SDS011;10765;50.954;5.322;2022-11-20T04:45:51;36.50;;;24.23;;
21215;SDS011;10765;50.954;5.322;2022-11-20T04:48:18;35.20;;;24.13;;
21215;SDS011;10765;50.954;5.322;2022-11-20T04:50:45;34.47;;;25.53;;
21215;SDS011;10765;50.954;5.322;2022-11-20T04:53:12;36.23;;;25.13;;
21215;SDS011;10765;50.954;5.322;2022-11-20T04:55:40;36.93;;;25.63;;
21215;SDS011;10765;50.954;5.322;2022-11-20T04:58:09;36.77;;;25.13;;
21215;SDS011;10765;50.954;5.322;2022-11-20T05:00:35;35.27;;;25.40;;
21215;SDS011;10765;50.954;5.322;2022-11-20T05:03:02;35.47;;;24.77;;
21215;SDS011;10765;50.954;5.322;2022-11-20T05:05:29;36.53;;;26.67;;
21215;SDS011;10765;50.954;5.322;2022-11-20T05:07:56;34.63;;;26.23;;
21215;SDS011;10765;50.954;5.322;2022-11-20T05:10:23;35.87;;;26.10;;
21215;SDS011;10765;50.954;5.322;2022-11-20T05:12:50;36.43;;;26.53;;
21215;SDS011;10765;50.954;5.322;2022-11-20T05:15:19;35.60;;;25.40;;
21215;SDS011;10765;50.954;5.322;2022-11-20T05:17:46;34.67;;;24.87;;
21215;SDS011;10765;50.954;5.322;2022-11-20T05:20:14;33.37;;;24.60;;
21215;SDS011;10765;50.954;5.322;2022-11-20T05:22:41;36.80;;;25.90;;
21215;SDS011;10765;50.954;5.322;2022-11-20T05:25:08;35.20;;;25.70;;
21215;SDS011;10765;50.954;5.322;2022-11-20T05:27:35;37.20;;;26.60;;
21215;SDS011;10765;50.954;5.322;2022-11-20T05:30:02;37.67;;;25.73;;
21215;SDS011;10765;50.954;5.322;2022-11-20T05:32:31;35.27;;;26.23;;
21215;SDS011;10765;50.954;5.322;2022-11-20T05:34:58;37.00;;;26.27;;
21215;SDS011;10765;50.954;5.322;2022-11-20T05:37:24;35.03;;;25.43;;
21215;SDS011;10765;50.954;5.322;2022-11-20T05:39:51;33.97;;;25.17;;
21215;SDS011;10765;50.954;5.322;2022-11-20T05:42:18;39.50;;;27.00;;
21215;SDS011;10765;50.954;5.322;2022-11-20T05:44:57;32.43;;;24.70;;
21215;SDS011;10765;50.954;5.322;2022-11-20T05:47:24;34.27;;;24.83;;
21215;SDS011;10765;50.954;5.322;2022-11-20T05:49:53;34.30;;;25.03;;
21215;SDS011;10765;50.954;5.322;2022-11-20T05:52:20;34.53;;;25.40;;
21215;SDS011;10765;50.954;5.322;2022-11-20T05:54:47;40.03;;;25.90;;
21215;SDS011;10765;50.954;5.322;2022-11-20T05:57:14;39.97;;;26.20;;
21215;SDS011;10765;50.954;5.322;2022-11-20T05:59:41;37.33;;;26.53;;
21215;SDS011;10765;50.954;5.322;2022-11-20T06:02:07;39.33;;;25.80;;
21215;SDS011;10765;50.954;5.322;2022-11-20T06:04:34;34.17;;;26.20;;
21215;SDS011;10765;50.954;5.322;2022-11-20T06:07:04;37.67;;;25.47;;
21215;SDS011;10765;50.954;5.322;2022-11-20T06:09:31;36.90;;;27.47;;
21215;SDS011;10765;50.954;5.322;2022-11-20T06:11:58;40.77;;;26.53;;
21215;SDS011;10765;50.954;5.322;2022-11-20T06:14:25;36.67;;;26.63;;
21215;SDS011;10765;50.954;5.322;2022-11-20T06:16:52;35.90;;;25.40;;
21215;SDS011;10765;50.954;5.322;2022-11-20T06:19:18;34.70;;;25.53;;
21215;SDS011;10765;50.954;5.322;2022-11-20T06:21:47;36.83;;;25.83;;
21215;SDS011;10765;50.954;5.322;2022-11-20T06:24:16;36.37;;;25.10;;
21215;SDS011;10765;50.954;5.322;2022-11-20T06:26:43;36.77;;;26.13;;
21215;SDS011;10765;50.954;5.322;2022-11-20T06:29:10;35.30;;;24.70;;
21215;SDS011;10765;50.954;5.322;2022-11-20T06:31:37;36.77;;;26.43;;
21215;SDS011;10765;50.954;5.322;2022-11-20T06:34:04;36.10;;;25.53;;
21215;SDS011;10765;50.954;5.322;2022-11-20T06:36:32;41.13;;;27.90;;
21215;SDS011;10765;50.954;5.322;2022-11-20T06:38:59;37.27;;;27.10;;
21215;SDS011;10765;50.954;5.322;2022-11-20T06:41:28;37.40;;;25.33;;
21215;SDS011;10765;50.954;5.322;2022-11-20T06:43:54;36.53;;;25.10;;
21215;SDS011;10765;50.954;5.322;2022-11-20T06:46:21;33.20;;;24.87;;
21215;SDS011;10765;50.954;5.322;2022-11-20T06:48:48;34.00;;;25.83;;
21215;SDS011;10765;50.954;5.322;2022-11-20T06:51:16;37.10;;;25.90;;
21215;SDS011;10765;50.954;5.322;2022-11-20T06:53:43;35.57;;;25.40;;
21215;SDS011;10765;50.954;5.322;2022-11-20T06:56:10;34.53;;;24.43;;
21215;SDS011;10765;50.954;5.322;2022-11-20T06:58:39;35.43;;;25.87;;
21215;SDS011;10765;50.954;5.322;2022-11-20T07:01:06;35.63;;;24.87;;
21215;SDS011;10765;50.954;5.322;2022-11-20T07:03:35;33.47;;;24.90;;
21215;SDS011;10765;50.954;5.322;2022-11-20T07:06:02;35.70;;;25.20;;
21215;SDS011;10765;50.954;5.322;2022-11-20T07:08:30;35.23;;;24.73;;
21215;SDS011;10765;50.954;5.322;2022-11-20T07:10:57;35.50;;;24.57;;
21215;SDS011;10765;50.954;5.322;2022-11-20T07:13:25;34.37;;;24.03;;
21215;SDS011;10765;50.954;5.322;2022-11-20T07:15:53;34.20;;;25.17;;
21215;SDS011;10765;50.954;5.322;2022-11-20T07:18:20;37.17;;;26.07;;
21215;SDS011;10765;50.954;5.322;2022-11-20T07:20:47;36.97;;;25.63;;
21215;SDS011;10765;50.954;5.322;2022-11-20T07:23:14;39.63;;;27.60;;
21215;SDS011;10765;50.954;5.322;2022-11-20T07:25:41;36.60;;;26.50;;
21215;SDS011;10765;50.954;5.322;2022-11-20T07:28:08;32.73;;;25.60;;
21215;SDS011;10765;50.954;5.322;2022-11-20T07:30:35;33.93;;;25.13;;
21215;SDS011;10765;50.954;5.322;2022-11-20T07:33:04;36.80;;;25.80;;
21215;SDS011;10765;50.954;5.322;2022-11-20T07:35:31;37.77;;;26.47;;
21215;SDS011;10765;50.954;5.322;2022-11-20T07:37:58;35.63;;;24.80;;
21215;SDS011;10765;50.954;5.322;2022-11-20T07:40:25;34.23;;;25.10;;
21215;SDS011;10765;50.954;5.322;2022-11-20T07:42:52;33.13;;;25.20;;
21215;SDS011;10765;50.954;5.322;2022-11-20T07:45:22;36.60;;;26.03;;
21215;SDS011;10765;50.954;5.322;2022-11-20T07:47:50;32.23;;;24.50;;
21215;SDS011;10765;50.954;5.322;2022-11-20T07:50:19;32.27;;;24.73;;
21215;SDS011;10765;50.954;5.322;2022-11-20T07:52:46;35.67;;;24.70;;
21215;SDS011;10765;50.954;5.322;2022-11-20T07:55:13;34.97;;;24.20;;
21215;SDS011;10765;50.954;5.322;2022-11-20T07:57:40;33.93;;;25.40;;
21215;SDS011;10765;50.954;5.322;2022-11-20T08:00:08;31.17;;;24.17;;
21215;SDS011;10765;50.954;5.322;2022-11-20T08:02:37;31.40;;;23.27;;
21215;SDS011;10765;50.954;5.322;2022-11-20T08:05:05;31.67;;;23.13;;
21215;SDS011;10765;50.954;5.322;2022-11-20T08:07:36;30.77;;;22.57;;
21215;SDS011;10765;50.954;5.322;2022-11-20T08:10:04;30.60;;;22.57;;
21215;SDS011;10765;50.954;5.322;2022-11-20T08:12:32;32.90;;;23.47;;
21215;SDS011;10765;50.954;5.322;2022-11-20T08:15:16;30.70;;;22.63;;
21215;SDS011;10765;50.954;5.322;2022-11-20T08:17:43;37.97;;;23.60;;
21215;SDS011;10765;50.954;5.322;2022-11-20T08:20:10;33.43;;;23.63;;
21215;SDS011;10765;50.954;5.322;2022-11-20T08:22:38;34.60;;;23.77;;
21215;SDS011;10765;50.954;5.322;2022-11-20T08:25:08;31.77;;;22.83;;
21215;SDS011;10765;50.954;5.322;2022-11-20T08:27:35;30.37;;;23.70;;
21215;SDS011;10765;50.954;5.322;2022-11-20T08:30:02;30.17;;;23.20;;
21215;SDS011;10765;50.954;5.322;2022-11-20T08:32:29;31.10;;;22.97;;
21215;SDS011;10765;50.954;5.322;2022-11-20T08:34:56;32.10;;;24.43;;
21215;SDS011;10765;50.954;5.322;2022-11-20T08:37:23;33.70;;;25.33;;
21215;SDS011;10765;50.954;5.322;2022-11-20T08:39:51;32.83;;;24.77;;
21215;SDS011;10765;50.954;5.322;2022-11-20T08:42:21;31.57;;;24.53;;
21215;SDS011;10765;50.954;5.322;2022-11-20T08:44:48;34.10;;;23.70;;
21215;SDS011;10765;50.954;5.322;2022-11-20T08:47:15;31.77;;;24.00;;
21215;SDS011;10765;50.954;5.322;2022-11-20T08:49:42;31.20;;;24.17;;
21215;SDS011;10765;50.954;5.322;2022-11-20T08:52:09;33.30;;;24.87;;
21215;SDS011;10765;50.954;5.322;2022-11-20T08:54:36;32.97;;;23.50;;
21215;SDS011;10765;50.954;5.322;2022-11-20T08:57:05;35.80;;;24.53;;
21215;SDS011;10765;50.954;5.322;2022-11-20T08:59:32;36.30;;;24.37;;
21215;SDS011;10765;50.954;5.322;2022-11-20T09:01:59;34.23;;;24.07;;
21215;SDS011;10765;50.954;5.322;2022-11-20T09:04:26;38.67;;;26.67;;
21215;SDS011;10765;50.954;5.322;2022-11-20T09:06:53;34.10;;;24.00;;
21215;SDS011;10765;50.954;5.322;2022-11-20T09:09:19;31.10;;;22.70;;
21215;SDS011;10765;50.954;5.322;2022-11-20T09:11:46;35.40;;;25.00;;
21215;SDS011;10765;50.954;5.322;2022-11-20T09:14:16;31.77;;;24.00;;
21215;SDS011;10765;50.954;5.322;2022-11-20T09:16:44;36.13;;;25.83;;
21215;SDS011;10765;50.954;5.322;2022-11-20T09:19:11;34.07;;;24.50;;
21215;SDS011;10765;50.954;5.322;2022-11-20T09:21:38;34.60;;;24.67;;
21215;SDS011;10765;50.954;5.322;2022-11-20T09:24:05;31.17;;;24.43;;
21215;SDS011;10765;50.954;5.322;2022-11-20T09:26:32;30.27;;;23.43;;
21215;SDS011;10765;50.954;5.322;2022-11-20T09:28:59;34.50;;;24.73;;
21215;SDS011;10765;50.954;5.322;2022-11-20T09:31:27;30.87;;;23.27;;
21215;SDS011;10765;50.954;5.322;2022-11-20T09:33:54;34.40;;;24.93;;
21215;SDS011;10765;50.954;5.322;2022-11-20T09:36:21;34.80;;;24.27;;
21215;SDS011;10765;50.954;5.322;2022-11-20T09:38:48;31.20;;;23.37;;
21215;SDS011;10765;50.954;5.322;2022-11-20T09:41:24;35.37;;;25.07;;
21215;SDS011;10765;50.954;5.322;2022-11-20T09:44:07;34.50;;;24.53;;
21215;SDS011;10765;50.954;5.322;2022-11-20T09:46:49;34.03;;;24.93;;
21215;SDS011;10765;50.954;5.322;2022-11-20T09:49:24;32.97;;;23.40;;
21215;SDS011;10765;50.954;5.322;2022-11-20T09:51:59;34.80;;;23.73;;
21215;SDS011;10765;50.954;5.322;2022-11-20T09:54:31;38.27;;;25.13;;
21215;SDS011;10765;50.954;5.322;2022-11-20T09:57:03;36.27;;;24.23;;
21215;SDS011;10765;50.954;5.322;2022-11-20T09:59:36;34.80;;;24.17;;
21215;SDS011;10765;50.954;5.322;2022-11-20T10:02:12;36.90;;;24.50;;
21215;SDS011;10765;50.954;5.322;2022-11-20T10:04:44;37.10;;;24.03;;
21215;SDS011;10765;50.954;5.322;2022-11-20T10:07:18;39.33;;;25.87;;
21215;SDS011;10765;50.954;5.322;2022-11-20T10:09:51;35.90;;;23.80;;
21215;SDS011;10765;50.954;5.322;2022-11-20T10:12:22;35.77;;;24.60;;
21215;SDS011;10765;50.954;5.322;2022-11-20T10:15:04;39.10;;;25.93;;
21215;SDS011;10765;50.954;5.322;2022-11-20T10:17:46;42.87;;;25.60;;
21215;SDS011;10765;50.954;5.322;2022-11-20T10:20:29;42.83;;;26.40;;
21215;SDS011;10765;50.954;5.322;2022-11-20T10:23:16;37.60;;;23.63;;
21215;SDS011;10765;50.954;5.322;2022-11-20T10:25:55;39.83;;;24.73;;
21215;SDS011;10765;50.954;5.322;2022-11-20T10:28:30;43.13;;;26.70;;
21215;SDS011;10765;50.954;5.322;2022-11-20T10:31:11;43.13;;;27.07;;
21215;SDS011;10765;50.954;5.322;2022-11-20T10:33:44;39.20;;;25.10;;
21215;SDS011;10765;50.954;5.322;2022-11-20T10:36:15;39.83;;;24.77;;
21215;SDS011;10765;50.954;5.322;2022-11-20T10:38:46;42.47;;;26.67;;
21215;SDS011;10765;50.954;5.322;2022-11-20T10:41:17;42.10;;;25.43;;
21215;SDS011;10765;50.954;5.322;2022-11-20T10:43:52;42.50;;;25.53;;
21215;SDS011;10765;50.954;5.322;2022-11-20T10:46:26;42.13;;;26.10;;
21215;SDS011;10765;50.954;5.322;2022-11-20T10:49:09;40.03;;;24.57;;
21215;SDS011;10765;50.954;5.322;2022-11-20T10:51:40;40.33;;;25.80;;
21215;SDS011;10765;50.954;5.322;2022-11-20T10:54:19;45.53;;;27.90;;
21215;SDS011;10765;50.954;5.322;2022-11-20T10:56:53;36.00;;;24.43;;
21215;SDS011;10765;50.954;5.322;2022-11-20T10:59:37;43.63;;;25.97;;
21215;SDS011;10765;50.954;5.322;2022-11-20T11:02:16;39.23;;;24.70;;
21215;SDS011;10765;50.954;5.322;2022-11-20T11:04:46;40.60;;;26.27;;
21215;SDS011;10765;50.954;5.322;2022-11-20T11:07:16;45.70;;;27.73;;
21215;SDS011;10765;50.954;5.322;2022-11-20T11:09:47;41.70;;;26.93;;
21215;SDS011;10765;50.954;5.322;2022-11-20T11:12:15;42.90;;;26.67;;
21215;SDS011;10765;50.954;5.322;2022-11-20T11:14:43;42.40;;;26.53;;
21215;SDS011;10765;50.954;5.322;2022-11-20T11:17:20;41.87;;;25.77;;
21215;SDS011;10765;50.954;5.322;2022-11-20T11:20:01;36.93;;;25.20;;
21215;SDS011;10765;50.954;5.322;2022-11-20T11:22:33;43.20;;;26.90;;
21215;SDS011;10765;50.954;5.322;2022-11-20T11:25:08;39.53;;;24.63;;
21215;SDS011;10765;50.954;5.322;2022-11-20T11:27:49;40.77;;;25.57;;
21215;SDS011;10765;50.954;5.322;2022-11-20T11:30:18;39.87;;;23.77;;
21215;SDS011;10765;50.954;5.322;2022-11-20T11:32:46;42.20;;;26.10;;
21215;SDS011;10765;50.954;5.322;2022-11-20T11:35:22;39.53;;;25.43;;
21215;SDS011;10765;50.954;5.322;2022-11-20T11:37:51;38.50;;;24.57;;
21215;SDS011;10765;50.954;5.322;2022-11-20T11:40:20;40.10;;;24.63;;
21215;SDS011;10765;50.954;5.322;2022-11-20T11:42:53;38.40;;;24.47;;
21215;SDS011;10765;50.954;5.322;2022-11-20T11:45:22;37.67;;;24.93;;
21215;SDS011;10765;50.954;5.322;2022-11-20T11:47:49;40.10;;;25.33;;
21215;SDS011;10765;50.954;5.322;2022-11-20T11:50:19;36.57;;;24.43;;
21215;SDS011;10765;50.954;5.322;2022-11-20T11:52:50;36.07;;;23.70;;
21215;SDS011;10765;50.954;5.322;2022-11-20T11:55:31;38.00;;;24.30;;
21215;SDS011;10765;50.954;5.322;2022-11-20T11:58:09;34.07;;;23.80;;
21215;SDS011;10765;50.954;5.322;2022-11-20T12:00:49;35.07;;;23.90;;
21215;SDS011;10765;50.954;5.322;2022-11-20T12:03:22;40.83;;;23.93;;
21215;SDS011;10765;50.954;5.322;2022-11-20T12:05:55;33.40;;;22.57;;
21215;SDS011;10765;50.954;5.322;2022-11-20T12:08:27;33.50;;;23.47;;
21215;SDS011;10765;50.954;5.322;2022-11-20T12:10:59;33.03;;;23.33;;
21215;SDS011;10765;50.954;5.322;2022-11-20T12:13:39;32.10;;;23.07;;
21215;SDS011;10765;50.954;5.322;2022-11-20T12:16:11;31.57;;;22.37;;
21215;SDS011;10765;50.954;5.322;2022-11-20T12:18:40;31.67;;;22.67;;
21215;SDS011;10765;50.954;5.322;2022-11-20T12:21:13;31.30;;;22.00;;
21215;SDS011;10765;50.954;5.322;2022-11-20T12:23:49;30.40;;;20.53;;
21215;SDS011;10765;50.954;5.322;2022-11-20T12:26:27;29.07;;;21.17;;
21215;SDS011;10765;50.954;5.322;2022-11-20T12:29:07;30.23;;;22.17;;
21215;SDS011;10765;50.954;5.322;2022-11-20T12:31:55;32.50;;;21.17;;
21215;SDS011;10765;50.954;5.322;2022-11-20T12:34:37;24.23;;;18.00;;
21215;SDS011;10765;50.954;5.322;2022-11-20T12:37:14;26.97;;;19.17;;
21215;SDS011;10765;50.954;5.322;2022-11-20T12:39:47;21.70;;;14.93;;
21215;SDS011;10765;50.954;5.322;2022-11-20T12:45:42;10.93;;;9.23;;
21215;SDS011;10765;50.954;5.322;2022-11-20T12:48:31;9.70;;;5.23;;
21215;SDS011;10765;50.954;5.322;2022-11-20T12:51:08;8.37;;;3.67;;
21215;SDS011;10765;50.954;5.322;2022-11-20T12:54:00;7.87;;;3.63;;
21215;SDS011;10765;50.954;5.322;2022-11-20T12:56:52;5.80;;;3.33;;
21215;SDS011;10765;50.954;5.322;2022-11-20T12:59:32;6.27;;;2.63;;
21215;SDS011;10765;50.954;5.322;2022-11-20T13:02:14;4.20;;;2.73;;
21215;SDS011;10765;50.954;5.322;2022-11-20T13:04:57;5.63;;;2.47;;
21215;SDS011;10765;50.954;5.322;2022-11-20T13:07:32;5.90;;;2.50;;
21215;SDS011;10765;50.954;5.322;2022-11-20T13:10:02;4.90;;;2.20;;
21215;SDS011;10765;50.954;5.322;2022-11-20T13:12:33;3.63;;;2.33;;
21215;SDS011;10765;50.954;5.322;2022-11-20T13:15:07;2.83;;;1.57;;
21215;SDS011;10765;50.954;5.322;2022-11-20T13:17:45;4.90;;;1.90;;
21215;SDS011;10765;50.954;5.322;2022-11-20T13:20:18;2.67;;;1.77;;
21215;SDS011;10765;50.954;5.322;2022-11-20T13:22:46;4.93;;;1.43;;
21215;SDS011;10765;50.954;5.322;2022-11-20T13:25:25;4.70;;;1.70;;
21215;SDS011;10765;50.954;5.322;2022-11-20T13:27:54;2.57;;;1.60;;
21215;SDS011;10765;50.954;5.322;2022-11-20T13:30:23;2.87;;;1.60;;
21215;SDS011;10765;50.954;5.322;2022-11-20T13:32:51;4.10;;;1.47;;
21215;SDS011;10765;50.954;5.322;2022-11-20T13:35:24;4.90;;;1.50;;
21215;SDS011;10765;50.954;5.322;2022-11-20T13:38:00;5.17;;;2.10;;
21215;SDS011;10765;50.954;5.322;2022-11-20T13:40:34;2.30;;;1.60;;
21215;SDS011;10765;50.954;5.322;2022-11-20T13:45:58;2.97;;;1.70;;
21215;SDS011;10765;50.954;5.322;2022-11-20T13:48:26;3.50;;;1.60;;
21215;SDS011;10765;50.954;5.322;2022-11-20T13:51:00;3.57;;;1.57;;
21215;SDS011;10765;50.954;5.322;2022-11-20T13:53:36;5.40;;;2.00;;
21215;SDS011;10765;50.954;5.322;2022-11-20T13:56:24;3.80;;;2.03;;
21215;SDS011;10765;50.954;5.322;2022-11-20T13:59:06;3.77;;;2.00;;
21215;SDS011;10765;50.954;5.322;2022-11-20T14:01:39;5.57;;;2.00;;
21215;SDS011;10765;50.954;5.322;2022-11-20T14:04:06;4.30;;;1.80;;
21215;SDS011;10765;50.954;5.322;2022-11-20T14:06:38;4.90;;;2.10;;
21215;SDS011;10765;50.954;5.322;2022-11-20T14:09:10;3.77;;;2.20;;
21215;SDS011;10765;50.954;5.322;2022-11-20T14:11:45;6.87;;;2.70;;
21215;SDS011;10765;50.954;5.322;2022-11-20T14:14:13;6.47;;;2.30;;
21215;SDS011;10765;50.954;5.322;2022-11-20T14:16:43;3.60;;;2.23;;
21215;SDS011;10765;50.954;5.322;2022-11-20T14:19:26;6.77;;;2.53;;
21215;SDS011;10765;50.954;5.322;2022-11-20T14:22:07;5.77;;;2.23;;
21215;SDS011;10765;50.954;5.322;2022-11-20T14:24:36;5.93;;;2.30;;
21215;SDS011;10765;50.954;5.322;2022-11-20T14:27:04;6.10;;;3.00;;
21215;SDS011;10765;50.954;5.322;2022-11-20T14:29:36;3.33;;;2.67;;
21215;SDS011;10765;50.954;5.322;2022-11-20T14:32:05;5.33;;;2.67;;
21215;SDS011;10765;50.954;5.322;2022-11-20T14:34:33;3.90;;;3.07;;
21215;SDS011;10765;50.954;5.322;2022-11-20T14:37:05;6.50;;;2.90;;
21215;SDS011;10765;50.954;5.322;2022-11-20T14:39:41;6.33;;;3.10;;
21215;SDS011;10765;50.954;5.322;2022-11-20T14:42:17;4.50;;;2.90;;
21215;SDS011;10765;50.954;5.322;2022-11-20T14:44:46;5.13;;;3.30;;
21215;SDS011;10765;50.954;5.322;2022-11-20T14:47:15;5.67;;;3.57;;
21215;SDS011;10765;50.954;5.322;2022-11-20T14:49:45;5.13;;;3.30;;